Terminal Aerodrome Forecast
Issued by NWS

Home | Current Version | Previous Version | Text Only | Print | Product List | Glossary Off
Versions: 1 2 3 4 5 6 7 8 9 10 11 12 13 14 15 16 17 18 19 20 21 22 23 24 25 26 27 28 29 30 31 32

400
FTUS43 KLOT 260530
TAFORD
TAF
KORD 260530Z 2606/2712 14008KT 5SM BR SCT005 BKN040
     FM260900 18006KT 4SM BR SCT020 BKN250
     FM261400 20011KT P6SM SCT040 BKN200
     FM270100 18007KT P6SM SCT250=

USA.gov is the U.S. government's official web portal to all federal, state and local government web resources and services.